Time;durP1;ratioP1;P1;durP2;ratioP2;P2;SDS_P1;SDS_P2;PMS_P1;PMS_P2;Temp;Humidity;BMP_temperature;BMP_pressure;BME280_temperature;BME280_humidity;BME280_pressure;Samples;Min_cycle;Max_cycle;Signal;HPM_P1;HPM_P2
2020/12/31 00:01:26;;;;;;;6.60;4.53;;;4.60;99.90;;;;;;5009477;28;20030;-79
2020/12/31 00:03:55;;;;;;;7.40;5.03;;;4.60;99.90;;;;;;5016090;28;20007;-80
2020/12/31 00:06:21;;;;;;;7.30;4.93;;;4.60;99.90;;;;;;4993668;28;20045;-80
2020/12/31 00:08:47;;;;;;;7.45;4.70;;;4.50;99.90;;;;;;5011881;28;20090;-80
2020/12/31 00:11:13;;;;;;;8.88;5.25;;;4.60;99.90;;;;;;5012217;28;20035;-79
2020/12/31 00:13:39;;;;;;;7.82;5.22;;;4.60;99.90;;;;;;5012788;28;20022;-80
2020/12/31 00:16:06;;;;;;;7.28;4.47;;;4.60;99.90;;;;;;5009904;28;20049;-80
2020/12/31 00:18:32;;;;;;;7.07;3.40;;;4.60;99.90;;;;;;5014331;28;20045;-78
2020/12/31 00:20:58;;;;;;;6.72;4.63;;;4.60;99.90;;;;;;5010123;28;20142;-80
2020/12/31 00:23:24;;;;;;;7.72;5.22;;;4.60;99.90;;;;;;5003344;28;20383;-80
2020/12/31 00:25:52;;;;;;;7.82;4.80;;;4.60;99.90;;;;;;5016639;28;20022;-78
2020/12/31 00:28:19;;;;;;;7.00;4.70;;;4.60;99.90;;;;;;5019558;28;20026;-80
2020/12/31 00:30:46;;;;;;;6.75;4.88;;;4.60;99.90;;;;;;5018284;28;20119;-78
2020/12/31 00:33:15;;;;;;;7.32;5.18;;;4.50;99.90;;;;;;5018729;28;20007;-79
2020/12/31 00:35:49;;;;;;;9.48;5.05;;;4.60;99.90;;;;;;5000712;28;20038;-81
2020/12/31 00:38:15;;;;;;;7.75;5.45;;;4.60;99.90;;;;;;5002958;28;20046;-80
2020/12/31 00:40:41;;;;;;;7.22;5.00;;;4.60;99.90;;;;;;5000137;28;20019;-79
2020/12/31 00:43:06;;;;;;;7.88;5.32;;;4.60;99.90;;;;;;5002317;28;20034;-79
2020/12/31 00:45:33;;;;;;;8.82;5.53;;;4.60;99.90;;;;;;4989980;28;20055;-80
2020/12/31 00:47:59;;;;;;;8.38;5.43;;;4.60;99.90;;;;;;5003299;28;20041;-78
2020/12/31 00:50:24;;;;;;;9.43;6.75;;;4.60;99.90;;;;;;5004980;28;20064;-77
2020/12/31 00:52:51;;;;;;;12.57;6.65;;;4.60;99.90;;;;;;5007569;28;20027;-79
2020/12/31 00:55:16;;;;;;;12.65;6.75;;;4.60;99.90;;;;;;5007684;28;20031;-79
2020/12/31 00:57:42;;;;;;;14.15;7.28;;;4.60;99.90;;;;;;5006791;28;20033;-79
2020/12/31 01:00:09;;;;;;;13.25;7.47;;;4.60;99.90;;;;;;5008079;28;20035;-79
2020/12/31 01:02:36;;;;;;;15.40;7.22;;;4.50;99.90;;;;;;5009442;28;20025;-78
2020/12/31 01:05:06;;;;;;;8.20;5.57;;;4.60;99.90;;;;;;5003769;28;20505;-80
2020/12/31 01:07:32;;;;;;;13.73;7.32;;;4.60;99.90;;;;;;4999474;28;20018;-82
2020/12/31 01:09:57;;;;;;;14.82;7.32;;;4.60;99.90;;;;;;4998807;28;20477;-81
2020/12/31 01:12:23;;;;;;;10.40;6.63;;;4.60;99.90;;;;;;4996800;28;20026;-82
2020/12/31 01:14:49;;;;;;;10.90;6.40;;;4.50;99.90;;;;;;4994646;28;20030;-82
2020/12/31 01:17:14;;;;;;;11.07;6.63;;;4.60;99.90;;;;;;4994769;28;20042;-82
2020/12/31 01:19:40;;;;;;;9.43;5.57;;;4.50;99.90;;;;;;4993833;28;20450;-82
2020/12/31 01:22:05;;;;;;;7.82;4.95;;;4.40;99.90;;;;;;4996004;28;20106;-81
2020/12/31 01:24:31;;;;;;;5.25;4.05;;;4.40;99.90;;;;;;4995548;28;20026;-83
2020/12/31 01:26:57;;;;;;;7.10;4.60;;;4.20;99.90;;;;;;4995318;28;20509;-82
2020/12/31 01:29:23;;;;;;;8.52;3.67;;;4.20;99.90;;;;;;5002227;28;20027;-82
2020/12/31 01:31:51;;;;;;;7.63;4.90;;;4.10;99.90;;;;;;4998998;28;20037;-82
2020/12/31 01:34:17;;;;;;;5.50;3.78;;;4.10;99.90;;;;;;4999717;28;20046;-81
2020/12/31 01:36:43;;;;;;;5.72;3.22;;;4.10;99.90;;;;;;4998369;28;20034;-82
2020/12/31 01:39:09;;;;;;;5.72;3.92;;;4.00;99.90;;;;;;4997429;28;20050;-81
2020/12/31 01:41:34;;;;;;;5.75;3.03;;;4.00;99.90;;;;;;4992836;28;20430;-82
2020/12/31 01:44:11;;;;;;;4.03;2.90;;;4.00;99.90;;;;;;4992862;28;20490;-81
2020/12/31 01:46:38;;;;;;;4.28;2.50;;;4.00;99.90;;;;;;4992625;28;20037;-81
2020/12/31 01:49:06;;;;;;;3.60;2.55;;;4.00;99.90;;;;;;4990513;28;20042;-81
2020/12/31 01:51:34;;;;;;;4.13;3.28;;;4.00;99.90;;;;;;4987812;28;20399;-82
2020/12/31 01:54:01;;;;;;;3.67;2.58;;;4.00;99.90;;;;;;4988508;28;20040;-82
2020/12/31 01:56:29;;;;;;;3.83;2.60;;;4.00;99.90;;;;;;4991668;28;20030;-82
2020/12/31 01:58:56;;;;;;;4.57;2.83;;;4.00;99.90;;;;;;4993774;28;20038;-79
2020/12/31 02:01:22;;;;;;;5.22;2.60;;;4.00;99.90;;;;;;4994166;28;20045;-81
2020/12/31 02:03:59;;;;;;;3.97;2.83;;;4.00;99.90;;;;;;4991712;28;20041;-79
2020/12/31 02:06:26;;;;;;;5.18;3.13;;;4.10;99.90;;;;;;4990606;28;20019;-79
2020/12/31 02:08:52;;;;;;;4.07;2.35;;;4.10;99.90;;;;;;5008507;28;20026;-81
2020/12/31 02:11:21;;;;;;;7.82;3.83;;;4.10;99.90;;;;;;5017645;28;20033;-79
2020/12/31 02:13:47;;;;;;;7.95;3.25;;;4.10;99.90;;;;;;5017207;28;20080;-80
2020/12/31 02:16:26;;;;;;;4.93;3.38;;;4.20;99.90;;;;;;5018363;28;20036;-78
2020/12/31 02:18:56;;;;;;;7.72;4.00;;;4.20;99.90;;;;;;5017803;28;20050;-80
2020/12/31 02:21:24;;;;;;;8.55;4.22;;;4.30;99.90;;;;;;5017622;28;20031;-79
2020/12/31 02:23:50;;;;;;;6.68;4.70;;;4.30;99.90;;;;;;5001581;28;20438;-79
2020/12/31 02:26:16;;;;;;;14.73;5.55;;;4.30;99.90;;;;;;4994839;28;20026;-80
2020/12/31 02:28:42;;;;;;;8.23;5.07;;;4.30;99.90;;;;;;4994614;28;20038;-79
2020/12/31 02:31:09;;;;;;;8.65;4.75;;;4.20;99.90;;;;;;4991432;28;20474;-80
2020/12/31 02:33:35;;;;;;;9.02;6.00;;;4.20;99.90;;;;;;4993493;28;20023;-79
2020/12/31 02:36:02;;;;;;;9.98;5.30;;;4.20;99.90;;;;;;4993790;28;20178;-80
2020/12/31 02:38:28;;;;;;;10.75;5.88;;;4.20;99.90;;;;;;4992809;28;20539;-80
2020/12/31 02:40:53;;;;;;;10.60;5.80;;;4.20;99.90;;;;;;4993828;28;20101;-80
2020/12/31 02:43:19;;;;;;;10.65;5.82;;;4.20;99.90;;;;;;4994145;28;20529;-79
2020/12/31 02:45:44;;;;;;;6.78;4.60;;;4.10;99.90;;;;;;4997544;28;20023;-80
2020/12/31 02:48:13;;;;;;;9.35;5.53;;;4.20;99.90;;;;;;4997021;28;20026;-81
2020/12/31 02:50:40;;;;;;;10.90;5.63;;;4.20;99.90;;;;;;4995582;28;20019;-81
2020/12/31 02:53:07;;;;;;;8.27;5.53;;;4.20;99.90;;;;;;4998258;28;20515;-81
2020/12/31 02:55:33;;;;;;;11.57;5.55;;;4.30;99.90;;;;;;4997665;28;20033;-80
2020/12/31 02:57:58;;;;;;;13.60;5.85;;;4.30;99.90;;;;;;4996991;28;20018;-80
2020/12/31 03:00:25;;;;;;;16.23;7.80;;;4.20;99.90;;;;;;4998136;28;20023;-80
2020/12/31 03:02:50;;;;;;;12.98;7.30;;;4.30;99.90;;;;;;4995054;28;20117;-80
2020/12/31 03:05:16;;;;;;;12.50;7.47;;;4.30;99.90;;;;;;4999904;28;20057;-81
2020/12/31 03:07:42;;;;;;;17.10;8.63;;;4.30;99.90;;;;;;5002842;28;20098;-81
2020/12/31 03:10:08;;;;;;;18.17;8.98;;;4.30;99.90;;;;;;5004033;28;20446;-79
2020/12/31 03:12:36;;;;;;;15.13;9.65;;;4.30;99.90;;;;;;5003911;28;20494;-82
2020/12/31 03:15:05;;;;;;;;;;;4.30;99.90;;;;;;5004709;28;20042;-79
2020/12/31 03:17:31;;;;;;;20.33;9.98;;;4.30;99.90;;;;;;5004845;28;19914;-80
2020/12/31 03:19:57;;;;;;;18.70;9.32;;;4.30;99.90;;;;;;5005508;28;20022;-82
2020/12/31 03:22:23;;;;;;;17.33;10.55;;;4.30;99.90;;;;;;5005605;28;20056;-81
2020/12/31 03:24:49;;;;;;;18.20;10.73;;;4.40;99.90;;;;;;5007799;28;20526;-80
2020/12/31 03:27:14;;;;;;;19.38;11.48;;;4.40;99.90;;;;;;5031107;28;20035;-80
2020/12/31 03:29:41;;;;;;;19.23;11.98;;;4.40;99.90;;;;;;5012081;28;20034;-79
2020/12/31 03:32:06;;;;;;;19.98;11.77;;;4.40;99.90;;;;;;5024939;28;20059;-82
2020/12/31 03:34:33;;;;;;;24.42;11.88;;;4.40;99.90;;;;;;5005421;28;20085;-81
2020/12/31 03:36:59;;;;;;;23.00;11.95;;;4.40;99.90;;;;;;5012505;28;20041;-80
2020/12/31 03:39:24;;;;;;;23.92;11.23;;;4.40;99.90;;;;;;5011539;28;20026;-80
2020/12/31 03:41:50;;;;;;;20.40;11.25;;;4.40;99.90;;;;;;5013116;28;20037;-80
2020/12/31 03:44:15;;;;;;;19.40;10.63;;;4.40;99.90;;;;;;5007381;28;20022;-81
2020/12/31 03:46:44;;;;;;;18.55;11.20;;;4.40;99.90;;;;;;5007008;28;20105;-80
2020/12/31 03:49:11;;;;;;;21.27;12.05;;;4.40;99.90;;;;;;5008356;28;20542;-80
2020/12/31 03:51:37;;;;;;;21.67;11.50;;;4.40;99.90;;;;;;5012613;28;20038;-81
2020/12/31 03:54:02;;;;;;;22.30;11.40;;;4.40;99.90;;;;;;5017715;28;20235;-80
2020/12/31 03:56:29;;;;;;;22.05;11.48;;;4.40;99.90;;;;;;5021371;28;20030;-81
2020/12/31 03:58:54;;;;;;;19.33;11.45;;;4.50;99.90;;;;;;5018273;28;20006;-79
2020/12/31 04:01:26;;;;;;;25.80;12.07;;;4.50;99.90;;;;;;5021785;28;20140;-79
2020/12/31 04:03:52;;;;;;;19.88;9.98;;;4.50;99.90;;;;;;5019695;28;20076;-80
2020/12/31 04:06:18;;;;;;;15.23;10.05;;;4.60;99.90;;;;;;5020865;28;20018;-80
2020/12/31 04:08:43;;;;;;;14.02;9.00;;;4.50;99.90;;;;;;5020039;28;20051;-80
2020/12/31 04:11:09;;;;;;;17.00;9.40;;;4.50;99.90;;;;;;5008732;28;20485;-81
2020/12/31 04:13:35;;;;;;;18.45;9.93;;;4.50;99.90;;;;;;5003229;28;20034;-79
2020/12/31 04:16:00;;;;;;;17.13;8.93;;;4.50;99.90;;;;;;5004434;28;20027;-79
2020/12/31 04:18:26;;;;;;;17.08;9.18;;;4.40;99.90;;;;;;5005381;28;20043;-80
2020/12/31 04:20:51;;;;;;;17.40;10.18;;;4.40;99.90;;;;;;5002917;28;20105;-81
2020/12/31 04:23:17;;;;;;;18.55;9.70;;;4.40;99.90;;;;;;5005211;28;20041;-81
2020/12/31 04:25:42;;;;;;;15.38;9.13;;;4.40;99.90;;;;;;5000214;28;20479;-80
2020/12/31 04:28:08;;;;;;;15.95;8.80;;;4.40;99.90;;;;;;5003679;28;20062;-81
2020/12/31 04:30:34;;;;;;;17.75;9.73;;;4.40;99.90;;;;;;5005014;28;20049;-81
2020/12/31 04:32:59;;;;;;;16.75;9.75;;;4.40;99.90;;;;;;5005285;28;20026;-82
2020/12/31 04:35:25;;;;;;;14.98;9.07;;;4.40;99.90;;;;;;5004656;28;20474;-80
2020/12/31 04:37:50;;;;;;;17.42;9.43;;;4.30;99.90;;;;;;5005869;28;20448;-80
2020/12/31 04:40:19;;;;;;;14.63;8.55;;;4.40;99.90;;;;;;5004886;28;20109;-81
2020/12/31 04:42:49;;;;;;;14.38;8.75;;;4.40;99.90;;;;;;5003759;28;20042;-81
2020/12/31 04:45:15;;;;;;;14.15;8.57;;;4.40;99.90;;;;;;5002657;28;20033;-81
2020/12/31 04:48:07;;;;;;;14.48;8.73;;;4.40;99.90;;;;;;5002773;28;20102;-81
2020/12/31 04:50:34;;;;;;;16.35;9.20;;;4.40;99.90;;;;;;4999902;28;20026;-82
2020/12/31 04:53:04;;;;;;;18.75;9.30;;;4.40;99.90;;;;;;4998151;28;20542;-81
2020/12/31 04:55:33;;;;;;;13.35;8.85;;;4.30;99.90;;;;;;4999967;28;20068;-83
2020/12/31 04:58:00;;;;;;;14.05;9.00;;;4.40;99.90;;;;;;5000195;28;20054;-82
2020/12/31 05:00:25;;;;;;;16.52;9.27;;;4.40;99.90;;;;;;4999104;28;20042;-83
2020/12/31 05:02:55;;;;;;;17.35;9.25;;;4.40;99.90;;;;;;5017187;28;20037;-81
2020/12/31 05:05:21;;;;;;;18.40;11.02;;;4.40;99.90;;;;;;4996757;28;20023;-82
2020/12/31 05:07:51;;;;;;;16.20;9.68;;;4.40;99.90;;;;;;4996576;28;20117;-82
2020/12/31 05:10:17;;;;;;;19.33;10.85;;;4.40;99.90;;;;;;4995477;28;20038;-82
2020/12/31 05:12:42;;;;;;;18.83;10.82;;;4.40;99.90;;;;;;4996844;28;20218;-82
2020/12/31 05:15:09;;;;;;;21.70;10.80;;;4.50;99.90;;;;;;5001650;28;20045;-82
2020/12/31 05:17:35;;;;;;;20.08;10.93;;;4.40;99.90;;;;;;4995143;28;20117;-81
2020/12/31 05:20:14;;;;;;;19.35;10.95;;;4.50;99.90;;;;;;4989857;28;20603;-81
2020/12/31 05:22:40;;;;;;;22.45;11.60;;;4.50;99.90;;;;;;4990582;28;20031;-81
2020/12/31 05:25:06;;;;;;;20.48;11.30;;;4.50;99.90;;;;;;4994714;28;20177;-81
2020/12/31 05:27:31;;;;;;;20.05;12.07;;;4.50;99.90;;;;;;4997697;28;20118;-80
2020/12/31 05:29:59;;;;;;;21.52;11.55;;;4.50;99.90;;;;;;4995587;28;20035;-82
2020/12/31 05:32:31;;;;;;;32.70;13.13;;;4.50;99.90;;;;;;4997112;28;20026;-79
2020/12/31 05:34:57;;;;;;;21.63;11.82;;;4.50;99.90;;;;;;4999013;28;20066;-82
2020/12/31 05:37:25;;;;;;;25.35;12.68;;;4.50;99.90;;;;;;4998370;28;20121;-81
2020/12/31 05:40:06;;;;;;;18.53;10.83;;;4.40;99.90;;;;;;4999556;28;20492;-81
2020/12/31 05:42:33;;;;;;;29.30;12.75;;;4.40;99.90;;;;;;5006919;28;20022;-81
2020/12/31 05:45:18;;;;;;;23.77;12.63;;;4.40;99.90;;;;;;5010456;28;20015;-80
2020/12/31 05:47:50;;;;;;;24.98;11.95;;;4.50;99.90;;;;;;5019484;28;20019;-80
2020/12/31 05:50:17;;;;;;;25.25;12.35;;;4.40;99.90;;;;;;5019471;28;20114;-80
2020/12/31 05:52:43;;;;;;;25.88;13.25;;;4.40;99.90;;;;;;5018830;28;20026;-80
2020/12/31 05:55:09;;;;;;;24.58;12.05;;;4.40;99.90;;;;;;5019530;28;20019;-80
2020/12/31 05:57:47;;;;;;;20.60;12.27;;;4.50;99.90;;;;;;5018792;28;20034;-81
2020/12/31 06:00:27;;;;;;;22.60;12.18;;;4.50;99.90;;;;;;5012260;28;20065;-80
2020/12/31 06:02:54;;;;;;;21.80;12.30;;;4.50;99.90;;;;;;5001395;28;20030;-81
2020/12/31 06:05:21;;;;;;;22.85;12.35;;;4.50;99.90;;;;;;5000001;28;20467;-80
2020/12/31 06:07:52;;;;;;;22.87;12.93;;;4.50;99.90;;;;;;5000905;28;20035;-81
2020/12/31 06:10:23;;;;;;;22.05;12.00;;;4.40;99.90;;;;;;5002022;28;20030;-81
2020/12/31 06:13:00;;;;;;;26.00;13.02;;;4.40;99.90;;;;;;5001591;28;20092;-80
2020/12/31 06:15:37;;;;;;;24.08;12.80;;;4.30;99.90;;;;;;5003081;28;20030;-80
2020/12/31 06:18:04;;;;;;;23.85;13.30;;;4.30;99.90;;;;;;5004973;28;20053;-81
2020/12/31 06:20:32;;;;;;;31.50;13.27;;;4.30;99.90;;;;;;5004863;28;20038;-81
2020/12/31 06:23:03;;;;;;;;;;;4.30;99.90;;;;;;5006830;28;20474;-81
2020/12/31 06:25:48;;;;;;;24.98;12.88;;;4.30;99.90;;;;;;5003500;28;19917;-80
2020/12/31 06:28:23;;;;;;;33.67;14.82;;;4.30;99.90;;;;;;5005591;28;20073;-81
2020/12/31 06:30:53;;;;;;;29.60;14.48;;;4.30;99.90;;;;;;5008123;28;20045;-81
2020/12/31 06:33:46;;;;;;;34.42;14.05;;;4.30;99.90;;;;;;4991049;28;20038;-82
2020/12/31 06:36:12;;;;;;;28.77;14.23;;;4.30;99.90;;;;;;4988410;28;20042;-82
2020/12/31 06:38:50;;;;;;;31.40;14.82;;;4.30;99.90;;;;;;5008838;28;20477;-81
2020/12/31 06:41:30;;;;;;;34.92;15.18;;;4.30;99.90;;;;;;5009421;28;20578;-80
2020/12/31 06:44:12;;;;;;;34.13;14.00;;;4.30;99.90;;;;;;4998381;28;20482;-82
2020/12/31 06:46:40;;;;;;;32.13;13.43;;;4.20;99.90;;;;;;5006774;28;20030;-81
2020/12/31 06:49:05;;;;;;;27.75;12.80;;;4.30;99.90;;;;;;4993697;28;20061;-81
2020/12/31 06:51:32;;;;;;;28.75;14.60;;;4.30;99.90;;;;;;5004712;28;20030;-80
2020/12/31 06:53:58;;;;;;;34.42;14.30;;;4.30;99.90;;;;;;5008645;28;20031;-80
2020/12/31 06:56:43;;;;;;;32.30;14.18;;;4.30;99.90;;;;;;5009244;28;20041;-81
2020/12/31 06:59:29;;;;;;;28.98;13.98;;;4.30;99.90;;;;;;5006572;28;20019;-81
2020/12/31 07:01:56;;;;;;;26.60;13.63;;;4.30;99.90;;;;;;5010207;28;20033;-81
2020/12/31 07:04:33;;;;;;;29.25;13.88;;;4.40;99.90;;;;;;5010071;28;20087;-80
2020/12/31 07:07:00;;;;;;;29.87;14.57;;;4.40;99.90;;;;;;5011166;28;20027;-81
2020/12/31 07:09:36;;;;;;;28.70;15.02;;;4.40;99.90;;;;;;5011939;28;20293;-80
2020/12/31 07:12:07;;;;;;;31.25;14.02;;;4.50;99.90;;;;;;5010240;28;20041;-81
2020/12/31 07:14:36;;;;;;;28.52;14.52;;;4.50;99.90;;;;;;5009479;28;20057;-82
2020/12/31 07:17:03;;;;;;;32.20;13.80;;;4.40;99.90;;;;;;5005552;28;20034;-83
2020/12/31 07:19:33;;;;;;;32.13;14.77;;;4.40;99.90;;;;;;5009062;28;20083;-81
2020/12/31 07:21:58;;;;;;;32.17;14.38;;;4.40;99.90;;;;;;5011174;28;20121;-81
2020/12/31 07:24:26;;;;;;;32.30;14.82;;;4.40;99.90;;;;;;5009878;28;20594;-81
2020/12/31 07:26:57;;;;;;;27.95;14.65;;;4.40;99.90;;;;;;5011825;28;20042;-81
2020/12/31 07:29:33;;;;;;;30.73;14.55;;;4.30;99.90;;;;;;5015477;28;20026;-82
2020/12/31 07:32:01;;;;;;;28.85;14.10;;;4.30;99.90;;;;;;5017744;28;20041;-81
2020/12/31 07:34:33;;;;;;;26.88;13.48;;;4.30;99.90;;;;;;5018636;28;20136;-80
2020/12/31 07:37:02;;;;;;;31.67;13.10;;;4.30;99.90;;;;;;5018038;28;20111;-81
2020/12/31 07:39:30;;;;;;;30.60;13.63;;;4.30;99.90;;;;;;5009445;28;20050;-81
2020/12/31 07:42:17;;;;;;;27.98;13.02;;;4.30;99.90;;;;;;5006488;28;20034;-81
2020/12/31 07:44:57;;;;;;;29.02;14.38;;;4.30;99.90;;;;;;5006935;28;20030;-81
2020/12/31 07:47:24;;;;;;;33.58;12.80;;;4.30;99.90;;;;;;5000630;28;20022;-81
2020/12/31 07:49:53;;;;;;;25.50;12.75;;;4.40;99.90;;;;;;5007846;28;20031;-79
2020/12/31 07:52:19;;;;;;;28.08;13.27;;;4.40;99.90;;;;;;5006226;28;20038;-81
2020/12/31 07:54:45;;;;;;;26.52;13.10;;;4.40;99.90;;;;;;5007600;28;20034;-81
2020/12/31 07:57:13;;;;;;;25.60;12.57;;;4.40;99.90;;;;;;5008701;28;20045;-82
2020/12/31 07:59:45;;;;;;;26.75;13.48;;;4.50;99.90;;;;;;5002395;28;20026;-80
2020/12/31 08:02:15;;;;;;;26.48;12.48;;;4.50;99.90;;;;;;4995766;28;20033;-80
2020/12/31 08:04:42;;;;;;;24.30;11.43;;;4.50;99.90;;;;;;4993280;28;20031;-81
2020/12/31 08:07:16;;;;;;;24.47;13.37;;;4.50;99.90;;;;;;4996815;28;20387;-81
2020/12/31 08:09:42;;;;;;;28.67;12.82;;;4.50;99.90;;;;;;4995019;28;20482;-81
2020/12/31 08:12:10;;;;;;;28.10;13.02;;;4.50;99.90;;;;;;4995721;28;20097;-81
2020/12/31 08:14:43;;;;;;;27.40;11.95;;;4.60;99.90;;;;;;4996147;28;20038;-81
2020/12/31 08:17:10;;;;;;;23.80;12.40;;;4.60;99.90;;;;;;4997590;28;20490;-81
2020/12/31 08:19:39;;;;;;;23.73;12.35;;;4.70;99.90;;;;;;4994676;28;20110;-80
2020/12/31 08:22:23;;;;;;;26.50;13.45;;;4.70;99.90;;;;;;4995407;28;20525;-80
2020/12/31 08:25:11;;;;;;;37.90;12.80;;;4.70;99.90;;;;;;4996456;28;20061;-81
2020/12/31 08:27:38;;;;;;;;;;;4.70;99.90;;;;;;4983518;28;20081;-81
2020/12/31 08:30:06;;;;;;;26.52;12.07;;;4.80;99.90;;;;;;4975635;28;19920;-81
2020/12/31 08:32:37;;;;;;;;;;;4.80;99.90;;;;;;4976189;28;20038;-81
2020/12/31 08:35:07;;;;;;;34.40;13.93;;;4.80;99.90;;;;;;4996384;28;19992;-81
2020/12/31 08:37:34;;;;;;;29.73;14.05;;;4.70;99.90;;;;;;4995868;28;20095;-79
2020/12/31 08:40:00;;;;;;;29.95;13.85;;;4.80;99.90;;;;;;4994187;28;20360;-81
2020/12/31 08:42:26;;;;;;;26.88;14.15;;;4.80;99.90;;;;;;4995764;28;20061;-82
2020/12/31 08:44:54;;;;;;;29.45;15.13;;;4.80;99.90;;;;;;4995582;28;20073;-81
2020/12/31 08:47:21;;;;;;;31.15;15.00;;;4.80;99.90;;;;;;4995720;28;20026;-82
2020/12/31 08:49:56;;;;;;;32.60;14.50;;;4.80;99.90;;;;;;4995823;28;20018;-81
2020/12/31 08:52:26;;;;;;;31.05;14.95;;;4.80;99.90;;;;;;4995094;28;20053;-81
2020/12/31 08:55:11;;;;;;;37.80;15.07;;;4.80;99.90;;;;;;5003163;28;20031;-82
2020/12/31 08:57:38;;;;;;;31.02;14.18;;;4.90;99.90;;;;;;4981932;28;20507;-81
2020/12/31 09:00:06;;;;;;;36.00;15.20;;;4.90;99.90;;;;;;4998224;28;20099;-81
2020/12/31 09:02:32;;;;;;;29.05;14.18;;;4.90;99.90;;;;;;5000463;28;20050;-81
2020/12/31 09:05:16;;;;;;;31.77;15.43;;;4.90;99.90;;;;;;4996422;28;20042;-80
2020/12/31 09:07:42;;;;;;;33.30;14.65;;;4.90;99.90;;;;;;5006338;28;20026;-81
2020/12/31 09:10:18;;;;;;;34.53;16.23;;;5.00;99.90;;;;;;5000274;28;20383;-77
2020/12/31 09:12:44;;;;;;;33.78;16.73;;;5.00;99.90;;;;;;5001615;28;20023;-80
2020/12/31 09:15:18;;;;;;;36.47;15.52;;;5.00;99.90;;;;;;5004348;28;20039;-78
2020/12/31 09:17:44;;;;;;;33.38;15.45;;;5.00;99.90;;;;;;4999837;28;20046;-79
2020/12/31 09:20:17;;;;;;;38.05;17.00;;;5.00;99.90;;;;;;5003771;28;20060;-83
2020/12/31 09:22:43;;;;;;;35.78;16.13;;;5.00;99.90;;;;;;5018368;28;20042;-80
2020/12/31 09:25:10;;;;;;;37.22;14.90;;;5.00;99.90;;;;;;5016235;28;20070;-80
2020/12/31 09:27:36;;;;;;;37.23;15.97;;;5.00;99.90;;;;;;5017342;28;20105;-81
2020/12/31 09:30:06;;;;;;;32.25;15.68;;;5.00;99.90;;;;;;5019135;28;20017;-82
2020/12/31 09:32:32;;;;;;;32.67;14.93;;;5.00;99.90;;;;;;5017387;28;20029;-80
2020/12/31 09:34:58;;;;;;;25.55;14.20;;;5.10;99.90;;;;;;5014900;28;20019;-81
2020/12/31 09:37:23;;;;;;;37.28;14.48;;;5.00;99.90;;;;;;5018242;28;20047;-81
2020/12/31 09:39:49;;;;;;;24.30;12.88;;;5.00;99.90;;;;;;5017129;28;20030;-80
2020/12/31 09:42:15;;;;;;;36.45;14.95;;;5.00;99.90;;;;;;5000433;28;20085;-79
2020/12/31 09:44:41;;;;;;;32.58;14.80;;;5.00;99.90;;;;;;5002876;28;20026;-80
2020/12/31 09:47:07;;;;;;;31.88;13.82;;;5.00;99.90;;;;;;4996284;28;20030;-81
2020/12/31 09:49:33;;;;;;;27.58;12.73;;;5.00;99.90;;;;;;4996074;28;20088;-79
2020/12/31 09:52:00;;;;;;;26.83;12.88;;;5.00;99.90;;;;;;4995998;28;20426;-81
2020/12/31 09:54:51;;;;;;;28.63;12.27;;;5.00;99.90;;;;;;4995436;28;20033;-80
2020/12/31 09:57:16;;;;;;;28.85;13.05;;;5.00;99.90;;;;;;4976283;28;20372;-81
2020/12/31 09:59:42;;;;;;;29.85;12.32;;;5.00;99.90;;;;;;4988198;28;20038;-80
2020/12/31 10:02:07;;;;;;;35.88;13.52;;;5.10;99.90;;;;;;4993820;28;20493;-81
2020/12/31 10:04:33;;;;;;;29.60;12.05;;;5.00;99.90;;;;;;4994488;28;20076;-80
2020/12/31 10:06:59;;;;;;;28.50;12.48;;;5.10;99.90;;;;;;4994427;28;20116;-80
2020/12/31 10:09:24;;;;;;;26.75;11.75;;;5.00;99.90;;;;;;4994769;28;20026;-81
2020/12/31 10:11:54;;;;;;;28.08;12.23;;;5.00;99.90;;;;;;4993325;28;20177;-80
2020/12/31 10:14:20;;;;;;;28.33;11.85;;;5.10;99.90;;;;;;4992783;28;20441;-80
2020/12/31 10:16:46;;;;;;;24.75;12.00;;;5.10;99.90;;;;;;4992391;28;20133;-79
2020/12/31 10:19:11;;;;;;;21.25;11.60;;;5.10;99.90;;;;;;4993468;28;20517;-79
2020/12/31 10:21:38;;;;;;;22.80;11.63;;;5.10;99.90;;;;;;4992898;28;20410;-80
2020/12/31 10:24:03;;;;;;;26.27;12.98;;;5.10;99.90;;;;;;4990877;28;20402;-83
2020/12/31 10:26:29;;;;;;;24.55;12.93;;;5.10;99.90;;;;;;4994778;28;20022;-82
2020/12/31 10:28:55;;;;;;;29.15;13.10;;;5.10;99.90;;;;;;4993924;28;20511;-82
2020/12/31 10:31:22;;;;;;;30.10;12.60;;;5.20;99.90;;;;;;4983889;28;20050;-82
2020/12/31 10:33:48;;;;;;;27.42;12.75;;;5.20;99.90;;;;;;4992238;28;20046;-83
2020/12/31 10:36:13;;;;;;;24.75;11.57;;;5.30;99.90;;;;;;4992928;28;20386;-82
2020/12/31 10:38:40;;;;;;;29.05;11.70;;;5.30;99.90;;;;;;4990020;28;20023;-83
2020/12/31 10:41:07;;;;;;;25.33;11.97;;;5.30;99.90;;;;;;4976216;28;20022;-85
2020/12/31 10:43:32;;;;;;;23.48;11.40;;;5.30;99.90;;;;;;4993836;28;20030;-83
2020/12/31 10:45:58;;;;;;;24.10;11.40;;;5.40;99.90;;;;;;4994592;28;20034;-83
2020/12/31 10:48:24;;;;;;;20.92;12.65;;;5.40;99.90;;;;;;4990540;28;20030;-78
2020/12/31 10:50:50;;;;;;;28.17;12.35;;;5.50;99.90;;;;;;4993699;28;20023;-80
2020/12/31 10:53:15;;;;;;;27.73;12.45;;;5.50;99.90;;;;;;4994082;28;20128;-80
2020/12/31 10:55:41;;;;;;;28.42;13.40;;;5.60;99.90;;;;;;4994838;28;20022;-78
2020/12/31 10:58:07;;;;;;;29.73;12.85;;;5.60;99.90;;;;;;4992942;28;20073;-77
2020/12/31 11:00:32;;;;;;;28.42;13.15;;;5.60;99.90;;;;;;4992868;28;20030;-80
2020/12/31 11:02:59;;;;;;;28.85;11.93;;;5.60;99.90;;;;;;4992667;28;20120;-78
2020/12/31 11:05:25;;;;;;;28.13;13.65;;;5.70;99.90;;;;;;4992778;28;20349;-77
2020/12/31 11:07:51;;;;;;;32.70;12.82;;;5.70;99.90;;;;;;4992574;28;20046;-79
2020/12/31 11:10:16;;;;;;;30.90;14.07;;;5.80;99.90;;;;;;4992315;28;20045;-79
2020/12/31 11:12:42;;;;;;;30.88;14.18;;;5.80;99.90;;;;;;4988991;28;20026;-78
2020/12/31 11:15:09;;;;;;;32.13;15.57;;;5.80;99.90;;;;;;4996500;28;20042;-83
2020/12/31 11:17:35;;;;;;;36.05;14.18;;;5.80;99.90;;;;;;4992192;28;20042;-79
2020/12/31 11:20:00;;;;;;;32.65;16.08;;;5.80;99.90;;;;;;5014877;28;20006;-80
2020/12/31 11:22:26;;;;;;;29.20;14.60;;;5.80;99.90;;;;;;5015594;28;20053;-79
2020/12/31 11:24:51;;;;;;;35.47;15.88;;;5.80;99.90;;;;;;5015634;28;20022;-79
2020/12/31 11:27:18;;;;;;;37.85;16.85;;;5.80;99.90;;;;;;5020197;28;20106;-80
2020/12/31 11:29:44;;;;;;;36.55;16.73;;;5.90;99.90;;;;;;5020675;28;20023;-80
2020/12/31 11:32:10;;;;;;;32.97;14.85;;;6.00;99.90;;;;;;5017396;28;20027;-80
2020/12/31 11:34:36;;;;;;;36.95;15.95;;;6.20;99.90;;;;;;5017013;28;20031;-79
2020/12/31 11:37:02;;;;;;;37.35;16.83;;;6.40;99.90;;;;;;5010335;28;20035;-79
2020/12/31 11:39:28;;;;;;;30.10;15.70;;;6.50;99.90;;;;;;4998359;28;20030;-79
2020/12/31 11:42:00;;;;;;;32.25;15.35;;;6.70;99.90;;;;;;4992532;28;20043;-80
2020/12/31 11:44:25;;;;;;;30.00;14.98;;;6.80;99.90;;;;;;4995866;28;20034;-79
2020/12/31 11:46:56;;;;;;;30.20;15.57;;;6.70;99.90;;;;;;4994371;28;20038;-78
2020/12/31 11:49:22;;;;;;;34.67;15.40;;;6.60;99.90;;;;;;4994519;28;20398;-81
2020/12/31 11:51:48;;;;;;;28.45;14.63;;;6.50;99.90;;;;;;4998259;28;20026;-79
2020/12/31 11:54:14;;;;;;;30.13;14.80;;;6.30;99.90;;;;;;4995340;28;20038;-79
2020/12/31 11:56:40;;;;;;;30.42;14.90;;;6.20;99.90;;;;;;4987310;28;20058;-80
2020/12/31 11:59:06;;;;;;;31.80;16.73;;;6.10;99.90;;;;;;5000022;28;20530;-79
2020/12/31 12:01:32;;;;;;;35.40;15.48;;;6.10;99.90;;;;;;4998174;28;20096;-79
2020/12/31 12:03:58;;;;;;;31.92;15.73;;;6.10;99.90;;;;;;4997831;28;20025;-79
2020/12/31 12:06:23;;;;;;;35.97;16.27;;;6.10;99.90;;;;;;4996667;28;20064;-79
2020/12/31 12:08:49;;;;;;;31.20;15.05;;;5.90;99.90;;;;;;4998965;28;20121;-79
2020/12/31 12:11:15;;;;;;;35.80;16.42;;;5.80;99.90;;;;;;4997526;28;20027;-79
2020/12/31 12:13:40;;;;;;;31.55;16.17;;;5.80;99.90;;;;;;4995296;28;20026;-80
2020/12/31 12:16:06;;;;;;;28.33;15.63;;;5.70;99.90;;;;;;4991071;28;20018;-79
2020/12/31 12:18:32;;;;;;;32.55;16.95;;;5.70;99.90;;;;;;4997709;28;20038;-79
2020/12/31 12:20:58;;;;;;;35.55;15.82;;;5.80;99.90;;;;;;5001916;28;20022;-78
2020/12/31 12:23:23;;;;;;;32.28;15.45;;;5.80;99.90;;;;;;4996295;28;20022;-79
2020/12/31 12:25:50;;;;;;;31.17;15.80;;;5.90;99.90;;;;;;4995403;28;20124;-79
2020/12/31 12:28:16;;;;;;;35.38;15.93;;;6.00;99.90;;;;;;4994945;28;20040;-77
2020/12/31 12:30:41;;;;;;;33.10;15.55;;;6.00;99.90;;;;;;4996327;28;20026;-78
2020/12/31 12:33:07;;;;;;;34.22;16.35;;;6.10;99.90;;;;;;4995357;28;20491;-79
2020/12/31 12:35:35;;;;;;;34.03;16.10;;;6.10;99.90;;;;;;4995673;28;20037;-78
2020/12/31 12:38:01;;;;;;;28.50;14.63;;;6.30;99.90;;;;;;4975654;28;20042;-78
2020/12/31 12:40:26;;;;;;;32.63;14.73;;;6.40;99.90;;;;;;5009387;28;20675;-78
2020/12/31 12:42:52;;;;;;;32.83;15.93;;;6.40;99.90;;;;;;5015682;28;20077;-78
2020/12/31 12:45:17;;;;;;;32.45;15.70;;;6.40;99.90;;;;;;5016691;28;20030;-78
2020/12/31 12:47:43;;;;;;;33.13;16.25;;;6.40;99.90;;;;;;5012740;28;20036;-78